Time;durP1;ratioP1;P1;durP2;ratioP2;P2;SDS_P1;SDS_P2;PMS_P1;PMS_P2;Temp;Humidity;BMP_temperature;BMP_pressure;BME280_temperature;BME280_humidity;BME280_pressure;Samples;Min_cycle;Max_cycle;Signal;HPM_P1;HPM_P2
2023/01/15 00:00:08;;;;;;;0.20;0.20;;;;;;;6.83;100.00;91992.78;2545869;23;20009;-85
2023/01/15 00:01:27;;;;;;;0.40;0.20;;;;;;;7.05;100.00;91993.72;2545772;23;20343;-83
2023/01/15 00:02:30;;;;;;;0.15;0.15;;;;;;;6.99;100.00;92000.72;2548848;23;20428;-84
2023/01/15 00:03:31;;;;;;;0.20;0.20;;;;;;;7.22;100.00;92006.94;2546010;23;20005;-83
2023/01/15 00:04:34;;;;;;;0.80;0.20;;;;;;;7.14;100.00;92009.03;2545662;23;20355;-87
2023/01/15 00:05:37;;;;;;;0.20;0.20;;;;;;;7.24;100.00;92001.94;2557889;23;20004;-83
2023/01/15 00:06:41;;;;;;;0.28;0.28;;;;;;;7.19;100.00;92011.19;2545657;23;20009;-88
2023/01/15 00:07:43;;;;;;;0.25;0.25;;;;;;;7.26;100.00;92004.94;2534291;23;20085;-83
2023/01/15 00:08:44;;;;;;;0.38;0.20;;;;;;;7.24;100.00;92004.59;2533584;23;19998;-83
2023/01/15 00:09:45;;;;;;;0.25;0.20;;;;;;;7.13;100.00;91999.59;2545740;23;20389;-81
2023/01/15 00:10:46;;;;;;;1.58;0.20;;;;;;;7.06;100.00;91994.47;2546067;23;20009;-84
2023/01/15 00:11:47;;;;;;;0.20;0.20;;;;;;;6.94;100.00;91997.84;2545763;23;20029;-86
2023/01/15 00:12:49;;;;;;;0.75;0.20;;;;;;;7.16;100.00;91985.47;2533898;23;20097;-83
2023/01/15 00:13:51;;;;;;;0.10;0.10;;;;;;;7.18;100.00;91983.13;2546638;23;20073;-83
2023/01/15 00:14:52;;;;;;;0.15;0.15;;;;;;;7.21;100.00;91986.88;2546756;23;20001;-84
2023/01/15 00:15:53;;;;;;;1.13;0.30;;;;;;;7.30;100.00;91979.75;2545582;23;20028;-84
2023/01/15 00:16:54;;;;;;;0.20;0.20;;;;;;;7.27;100.00;91971.88;2533067;23;20740;-86
2023/01/15 00:17:55;;;;;;;0.10;0.10;;;;;;;7.14;100.00;91982.47;2557897;23;20091;-84
2023/01/15 00:18:59;;;;;;;3.03;0.30;;;;;;;6.98;100.00;91982.53;2545914;23;20001;-83
2023/01/15 00:19:59;;;;;;;0.20;0.20;;;;;;;7.17;100.00;91992.28;2534553;23;20028;-82
2023/01/15 00:21:07;;;;;;;1.00;0.20;;;;;;;7.06;100.00;91994.47;2533591;23;20445;-83
2023/01/15 00:22:08;;;;;;;0.82;0.20;;;;;;;6.97;100.00;91987.09;2536148;23;20156;-83
2023/01/15 00:27:37;;;;;;;0.20;0.20;;;;;;;6.96;100.00;91982.22;2550432;23;20029;-81
2023/01/15 00:28:29;;;;;;;;;;;;;;;6.62;100.00;91958.81;2572503;23;20130;-81
2023/01/15 00:29:31;;;;;;;0.85;0.60;;;;;;;6.77;100.00;91958.03;2546943;23;19917;-86
2023/01/15 00:30:31;;;;;;;0.40;0.22;;;;;;;6.78;100.00;91954.22;2535188;23;20423;-86
2023/01/15 00:31:34;;;;;;;1.45;0.35;;;;;;;6.75;100.00;91965.66;2534822;23;20069;-82
2023/01/15 00:32:35;;;;;;;3.45;0.45;;;;;;;6.55;100.00;91965.06;2559827;23;20004;-83
2023/01/15 00:33:36;;;;;;;2.65;0.43;;;;;;;6.44;100.00;91957.34;2559093;23;20009;-81
2023/01/15 00:34:37;;;;;;;0.80;0.50;;;;;;;6.39;100.00;91955.22;2533804;23;20012;-81
2023/01/15 00:35:38;;;;;;;1.17;0.20;;;;;;;6.86;100.00;91962.75;2533160;23;20033;-83
2023/01/15 00:36:39;;;;;;;0.75;0.30;;;;;;;6.71;100.00;91958.94;2546159;23;20012;-80
2023/01/15 00:37:40;;;;;;;0.20;0.20;;;;;;;6.72;100.00;91955.16;2559241;23;20004;-81
2023/01/15 00:38:41;;;;;;;0.20;0.20;;;;;;;6.72;100.00;91958.56;2558821;23;20431;-82
2023/01/15 00:39:42;;;;;;;2.30;0.20;;;;;;;6.82;100.00;91954.88;2546636;23;20001;-84
2023/01/15 00:40:43;;;;;;;0.30;0.30;;;;;;;7.01;100.00;91963.84;2546201;23;20416;-81
2023/01/15 00:41:44;;;;;;;0.10;0.10;;;;;;;7.28;100.00;91957.41;2533967;23;20010;-83
2023/01/15 00:42:45;;;;;;;0.15;0.15;;;;;;;7.31;100.00;91940.63;2546709;23;20024;-84
2023/01/15 00:43:46;;;;;;;0.10;0.10;;;;;;;7.18;100.00;91942.53;2546312;23;20039;-83
2023/01/15 00:44:47;;;;;;;1.60;0.30;;;;;;;7.13;100.00;91948.38;2546152;23;20376;-85
2023/01/15 00:45:50;;;;;;;0.20;0.20;;;;;;;6.94;100.00;91945.44;2545000;23;20009;-84
2023/01/15 00:46:51;;;;;;;0.52;0.30;;;;;;;6.89;100.00;91948.63;2546063;23;20585;-80
2023/01/15 00:47:53;;;;;;;0.10;0.10;;;;;;;6.94;100.00;91950.03;2545849;23;20002;-83
2023/01/15 00:48:54;;;;;;;0.13;0.13;;;;;;;7.03;100.00;91942.94;2545572;23;20001;-82
2023/01/15 00:49:55;;;;;;;0.20;0.20;;;;;;;7.23;100.00;91947.31;2557561;23;20008;-81
2023/01/15 00:50:56;;;;;;;0.20;0.20;;;;;;;7.15;100.00;91956.66;2545210;23;20017;-80
2023/01/15 00:51:57;;;;;;;0.25;0.10;;;;;;;7.24;100.00;91940.81;2533155;23;20050;-81
2023/01/15 00:52:58;;;;;;;0.10;0.10;;;;;;;7.10;100.00;91943.88;2534252;23;20009;-81
2023/01/15 00:53:59;;;;;;;0.63;0.10;;;;;;;6.99;100.00;91946.84;2546347;23;20036;-82
2023/01/15 00:55:00;;;;;;;0.10;0.10;;;;;;;6.97;100.00;91941.94;2533820;23;20012;-82
2023/01/15 00:56:01;;;;;;;0.43;0.10;;;;;;;7.05;100.00;91934.53;2533605;23;20076;-80
2023/01/15 00:57:02;;;;;;;0.20;0.20;;;;;;;7.04;100.00;91933.78;2533648;23;20436;-83
2023/01/15 00:58:03;;;;;;;0.17;0.10;;;;;;;6.98;100.00;91935.47;2544784;23;20486;-81
2023/01/15 00:59:04;;;;;;;0.20;0.20;;;;;;;6.95;100.00;91938.22;2533168;23;20002;-82
2023/01/15 01:00:06;;;;;;;0.70;0.10;;;;;;;6.84;100.00;91940.41;2533422;23;20089;-82
2023/01/15 01:01:07;;;;;;;0.25;0.20;;;;;;;6.83;100.00;91939.66;2545219;23;20280;-81
2023/01/15 01:02:08;;;;;;;0.10;0.10;;;;;;;6.90;100.00;91934.19;2545633;23;20009;-83
2023/01/15 01:03:12;;;;;;;0.10;0.10;;;;;;;7.05;100.00;91940.56;2570644;23;20439;-80
2023/01/15 01:04:13;;;;;;;0.57;0.20;;;;;;;7.05;100.00;91926.56;2570026;23;20095;-81
2023/01/15 01:05:14;;;;;;;0.10;0.10;;;;;;;7.08;100.00;91939.00;2557347;23;20001;-81
2023/01/15 01:06:15;;;;;;;0.20;0.20;;;;;;;6.97;100.00;91938.53;2545075;23;20009;-82
2023/01/15 01:07:17;;;;;;;0.68;0.20;;;;;;;6.88;100.00;91943.72;2545245;23;20451;-82
2023/01/15 01:08:18;;;;;;;0.20;0.20;;;;;;;6.79;100.00;91933.69;2545861;23;20009;-84
2023/01/15 01:09:19;;;;;;;0.17;0.17;;;;;;;6.93;100.00;91932.56;2545410;23;20028;-84
2023/01/15 01:10:21;;;;;;;1.02;0.10;;;;;;;7.22;100.00;91935.94;2545555;23;20010;-83
2023/01/15 01:11:25;;;;;;;0.15;0.15;;;;;;;7.10;100.00;91923.38;2546675;23;20001;-85
2023/01/15 01:12:27;;;;;;;0.20;0.20;;;;;;;6.94;100.00;91924.19;2534519;23;20006;-82
2023/01/15 01:13:28;;;;;;;0.20;0.20;;;;;;;7.10;100.00;91922.63;2545754;23;20060;-80
2023/01/15 01:14:29;;;;;;;0.55;0.22;;;;;;;7.09;100.00;91918.50;2557412;23;20001;-85
2023/01/15 01:15:33;;;;;;;0.95;0.20;;;;;;;7.02;100.00;91924.72;2545623;23;20005;-83
2023/01/15 01:16:36;;;;;;;0.47;0.20;;;;;;;6.91;100.00;91900.38;2559236;23;20419;-82
2023/01/15 01:17:38;;;;;;;0.20;0.20;;;;;;;7.07;100.00;91914.34;2569814;23;20044;-84
2023/01/15 01:18:39;;;;;;;0.70;0.10;;;;;;;7.15;100.00;91922.84;2544791;23;20436;-81
2023/01/15 01:19:40;;;;;;;0.75;0.20;;;;;;;6.96;100.00;91916.53;2545050;23;20001;-81
2023/01/15 01:20:41;;;;;;;0.40;0.20;;;;;;;6.94;100.00;91915.50;2545426;23;20344;-83
2023/01/15 01:21:42;;;;;;;0.10;0.10;;;;;;;7.09;100.00;91923.81;2534112;23;20001;-83
2023/01/15 01:22:43;;;;;;;0.20;0.15;;;;;;;7.09;100.00;91919.22;2546806;23;20009;-84
2023/01/15 01:23:44;;;;;;;0.10;0.10;;;;;;;6.97;100.00;91896.03;2571319;23;20059;-83
2023/01/15 01:24:45;;;;;;;0.43;0.10;;;;;;;6.99;100.00;91913.06;2558884;23;20056;-79
2023/01/15 01:25:46;;;;;;;0.20;0.20;;;;;;;7.19;100.00;91893.50;2537463;23;20002;-81
2023/01/15 01:26:48;;;;;;;0.85;0.20;;;;;;;7.42;100.00;91911.84;2534913;23;20020;-80
2023/01/15 01:27:50;;;;;;;0.10;0.10;;;;;;;7.27;100.00;91894.81;2545882;23;20008;-79
2023/01/15 01:28:53;;;;;;;0.85;0.40;;;;;;;7.16;100.00;91902.34;2545778;23;20443;-84
2023/01/15 01:29:54;;;;;;;0.15;0.13;;;;;;;7.08;100.00;91909.78;2522215;23;20070;-82
2023/01/15 01:30:57;;;;;;;0.15;0.10;;;;;;;7.03;100.00;91900.41;2521459;23;20076;-80
2023/01/15 01:31:58;;;;;;;0.50;0.20;;;;;;;7.04;100.00;91903.81;2522626;23;20018;-83
2023/01/15 01:32:59;;;;;;;0.20;0.10;;;;;;;7.02;100.00;91896.28;2534116;23;20013;-82
2023/01/15 01:34:00;;;;;;;0.28;0.15;;;;;;;6.94;100.00;91902.94;2533701;23;20002;-81
2023/01/15 01:36:44;;;;;;;0.15;0.10;;;;;;;7.20;100.00;91890.47;2527377;23;20097;-81
2023/01/15 01:40:06;;;;;;;0.35;0.20;;;;;;;7.22;100.00;91905.97;2558744;23;20092;-82
2023/01/15 01:41:10;;;;;;;0.15;0.15;;;;;;;7.22;100.00;91901.38;2534211;23;20002;-81
2023/01/15 01:42:14;;;;;;;0.13;0.13;;;;;;;7.08;100.00;91896.50;2511670;23;20030;-81
2023/01/15 01:43:46;;;;;;;0.10;0.10;;;;;;;7.25;100.00;91905.88;2512034;23;20010;-81
2023/01/15 01:44:50;;;;;;;0.20;0.20;;;;;;;7.23;100.00;91904.78;2547312;23;20080;-81
2023/01/15 01:45:51;;;;;;;0.10;0.10;;;;;;;7.36;100.00;91881.63;2546288;23;20082;-82
2023/01/15 01:46:52;;;;;;;2.63;0.20;;;;;;;7.40;100.00;91900.88;2522098;23;20017;-83
2023/01/15 01:48:21;;;;;;;0.13;0.13;;;;;;;7.61;100.00;91906.72;2522388;23;20053;-82
2023/01/15 01:49:56;;;;;;;0.10;0.10;;;;;;;7.49;100.00;91871.00;2553936;23;20009;-82
2023/01/15 01:51:08;;;;;;;0.63;0.10;;;;;;;7.32;100.00;91886.28;2539274;23;20333;-80
2023/01/15 01:52:40;;;;;;;0.73;0.20;;;;;;;7.41;100.00;91893.63;2526265;23;20062;-80
2023/01/15 01:53:59;;;;;;;0.10;0.10;;;;;;;7.32;100.00;91883.63;2485697;23;20022;-83
2023/01/15 01:55:01;;;;;;;0.20;0.10;;;;;;;7.39;100.00;91872.06;2489953;23;20410;-85
2023/01/15 01:56:50;;;;;;;0.25;0.10;;;;;;;7.57;100.00;91888.22;2521817;23;20010;-81
2023/01/15 01:57:59;;;;;;;0.10;0.10;;;;;;;7.36;100.00;91886.94;2528726;23;20017;-84
2023/01/15 01:59:03;;;;;;;0.10;0.10;;;;;;;7.36;100.00;91875.56;2535341;23;20556;-84
2023/01/15 02:00:11;;;;;;;0.32;0.20;;;;;;;7.21;100.00;91865.34;2522384;23;20089;-80
2023/01/15 02:01:12;;;;;;;0.10;0.10;;;;;;;7.17;100.00;91859.41;2512961;23;20563;-82
2023/01/15 02:02:29;;;;;;;0.20;0.10;;;;;;;7.35;100.00;91839.53;2510379;23;20454;-83
2023/01/15 02:03:49;;;;;;;0.10;0.10;;;;;;;7.29;100.00;91857.94;2540089;23;20080;-85
2023/01/15 02:04:51;;;;;;;0.10;0.10;;;;;;;7.31;100.00;91853.66;2546647;23;20084;-85
2023/01/15 02:06:30;;;;;;;0.10;0.10;;;;;;;7.41;100.00;91861.75;2522934;23;20025;-83
2023/01/15 02:07:32;;;;;;;1.92;0.20;;;;;;;7.28;100.00;91859.06;2555663;23;20013;-82
2023/01/15 02:08:57;;;;;;;0.57;0.28;;;;;;;7.27;100.00;91865.56;2539931;23;20002;-81
2023/01/15 02:10:01;;;;;;;0.10;0.10;;;;;;;7.17;100.00;91856.00;2528098;23;20013;-80
2023/01/15 02:11:02;;;;;;;0.10;0.10;;;;;;;7.31;100.00;91856.31;2532218;23;19991;-83
2023/01/15 02:12:29;;;;;;;0.10;0.10;;;;;;;7.80;100.00;91863.19;2529297;23;20002;-82
2023/01/15 02:13:38;;;;;;;0.10;0.10;;;;;;;7.55;100.00;91862.06;2524072;23;20013;-83
2023/01/15 02:14:58;;;;;;;0.40;0.10;;;;;;;7.60;100.00;91852.81;2526466;23;20007;-82
2023/01/15 02:29:43;;;;;;;0.17;0.17;;;;;;;7.58;100.00;91847.16;5169679;22;20453;-83
2023/01/15 02:31:09;;;;;;;0.10;0.10;;;;;;;7.56;100.00;91842.28;2575333;23;20012;-84
2023/01/15 02:32:19;;;;;;;0.47;0.20;;;;;;;7.44;100.00;91836.97;2548000;23;20005;-82
2023/01/15 02:33:29;;;;;;;0.28;0.20;;;;;;;7.45;100.00;91847.16;2540796;23;20064;-84
2023/01/15 02:34:34;;;;;;;0.25;0.20;;;;;;;7.42;100.00;91848.03;2540863;23;20458;-85
2023/01/15 02:35:53;;;;;;;0.10;0.10;;;;;;;7.34;100.00;91846.75;2549470;23;20370;-82
2023/01/15 02:37:15;;;;;;;0.10;0.10;;;;;;;7.43;100.00;91840.81;2552412;23;20012;-83
2023/01/15 02:38:23;;;;;;;0.20;0.17;;;;;;;7.72;100.00;91849.38;2546182;23;20005;-85
2023/01/15 02:39:27;;;;;;;0.32;0.20;;;;;;;7.58;100.00;91842.59;2553239;23;20083;-82
2023/01/15 02:40:31;;;;;;;1.40;0.20;;;;;;;7.45;100.00;91841.09;2550063;23;20076;-85
2023/01/15 02:41:37;;;;;;;0.95;0.30;;;;;;;7.39;100.00;91842.81;2550123;23;20033;-83
2023/01/15 02:42:39;;;;;;;0.30;0.30;;;;;;;7.31;100.00;91831.66;2549440;23;20041;-82
2023/01/15 02:43:44;;;;;;;0.45;0.10;;;;;;;7.21;100.00;91840.69;2549678;23;20072;-85
2023/01/15 02:44:50;;;;;;;0.10;0.10;;;;;;;7.23;100.00;91825.06;2549324;23;20040;-84
2023/01/15 02:45:54;;;;;;;0.30;0.20;;;;;;;7.25;100.00;91812.09;2549724;23;20365;-82
2023/01/15 02:46:57;;;;;;;0.30;0.30;;;;;;;7.66;100.00;91837.78;2537805;23;20036;-86
2023/01/15 02:48:09;;;;;;;0.43;0.20;;;;;;;7.45;100.00;91817.91;2549315;23;20004;-83
2023/01/15 02:49:14;;;;;;;1.20;0.20;;;;;;;7.45;100.00;91823.25;2555736;23;20345;-82
2023/01/15 02:50:19;;;;;;;0.38;0.20;;;;;;;7.41;100.00;91800.59;2562174;23;20430;-83
2023/01/15 02:51:24;;;;;;;0.47;0.20;;;;;;;7.32;100.00;91817.94;2551020;23;20013;-87
2023/01/15 02:52:30;;;;;;;0.17;0.17;;;;;;;7.28;100.00;91816.56;2549148;23;20028;-83
2023/01/15 02:53:34;;;;;;;0.55;0.10;;;;;;;7.26;100.00;91810.94;2551732;23;20265;-85
2023/01/15 02:54:45;;;;;;;1.08;0.20;;;;;;;7.28;100.00;91816.56;2549425;23;20009;-85
2023/01/15 02:55:50;;;;;;;0.10;0.10;;;;;;;7.51;100.00;91829.53;2553849;23;20364;-80
2023/01/15 02:56:53;;;;;;;0.47;0.30;;;;;;;7.44;100.00;91810.38;2549466;23;20008;-83
2023/01/15 02:57:57;;;;;;;0.20;0.20;;;;;;;7.40;100.00;91813.16;2537035;23;20002;-87
2023/01/15 02:59:05;;;;;;;0.20;0.20;;;;;;;7.61;100.00;91805.69;2525864;23;20672;-85
2023/01/15 03:00:10;;;;;;;0.10;0.10;;;;;;;7.47;100.00;91798.91;2551437;23;20080;-86
2023/01/15 03:01:21;;;;;;;0.63;0.10;;;;;;;7.51;100.00;91800.28;2561520;23;20000;-86
2023/01/15 03:02:31;;;;;;;0.20;0.20;;;;;;;7.49;100.00;91797.28;2547998;23;20072;-81
2023/01/15 03:04:03;;;;;;;0.10;0.10;;;;;;;7.41;100.00;91811.22;2552055;23;20005;-83
2023/01/15 03:05:17;;;;;;;0.10;0.10;;;;;;;7.33;100.00;91792.09;2555700;23;20015;-83
2023/01/15 03:06:22;;;;;;;0.20;0.20;;;;;;;7.27;100.00;91791.16;2552319;23;20052;-84
2023/01/15 03:07:50;;;;;;;0.10;0.10;;;;;;;7.24;100.00;91792.75;2549521;23;20087;-83
2023/01/15 03:08:51;;;;;;;0.15;0.15;;;;;;;7.45;100.00;91796.66;2560142;23;20008;-86
2023/01/15 03:09:54;;;;;;;0.10;0.10;;;;;;;7.43;100.00;91806.97;2549026;23;20001;-82
2023/01/15 03:11:16;;;;;;;0.20;0.20;;;;;;;7.47;100.00;91791.66;2525437;23;20002;-84
2023/01/15 03:13:02;;;;;;;0.20;0.20;;;;;;;7.34;100.00;91808.81;2557884;23;20040;-84
2023/01/15 03:14:12;;;;;;;0.20;0.20;;;;;;;7.49;100.00;91794.63;2548387;23;20352;-84
2023/01/15 03:16:33;;;;;;;0.32;0.22;;;;;;;7.49;100.00;91793.88;2535009;23;20417;-83
2023/01/15 03:16:57;;;;;;;0.60;0.20;;;;;;;7.51;100.00;91800.28;2549210;23;20104;-84
2023/01/15 03:18:02;;;;;;;0.13;0.10;;;;;;;7.55;100.00;91800.91;2552124;23;20308;-82
2023/01/15 03:19:24;;;;;;;0.20;0.17;;;;;;;7.62;100.00;91799.94;2540737;23;20005;-82
2023/01/15 03:20:30;;;;;;;0.20;0.20;;;;;;;7.36;100.00;91793.16;2542441;23;20005;-82
2023/01/15 03:21:54;;;;;;;0.10;0.10;;;;;;;7.34;100.00;91801.56;2527329;23;20530;-81
2023/01/15 03:23:04;;;;;;;0.20;0.20;;;;;;;7.34;100.00;91801.56;2546662;23;20009;-83
2023/01/15 03:24:09;;;;;;;0.20;0.20;;;;;;;7.16;100.00;91791.50;2538229;23;20009;-83
2023/01/15 03:25:18;;;;;;;1.20;0.20;;;;;;;7.25;100.00;91804.88;2525135;23;20057;-85
2023/01/15 03:26:19;;;;;;;0.20;0.20;;;;;;;7.47;100.00;91807.63;2527594;23;20010;-84
2023/01/15 03:27:21;;;;;;;0.20;0.20;;;;;;;7.40;100.00;91799.13;2524212;23;20093;-82
2023/01/15 03:28:25;;;;;;;3.28;0.20;;;;;;;7.23;100.00;91790.50;2523926;23;20007;-87
2023/01/15 03:29:36;;;;;;;0.95;0.20;;;;;;;7.49;100.00;91793.88;2523676;23;20026;-84
2023/01/15 03:30:37;;;;;;;0.20;0.20;;;;;;;7.43;100.00;91804.31;2526284;23;20053;-80
2023/01/15 03:31:39;;;;;;;0.10;0.10;;;;;;;7.30;100.00;91800.94;2546216;23;20005;-84
2023/01/15 03:32:41;;;;;;;0.20;0.20;;;;;;;7.32;100.00;91791.34;2558204;23;20080;-80
2023/01/15 03:33:43;;;;;;;1.38;0.20;;;;;;;7.22;100.00;91797.00;2545425;23;20009;-85
2023/01/15 03:34:52;;;;;;;0.85;0.10;;;;;;;7.13;100.00;91797.66;2534165;23;20022;-83
2023/01/15 03:35:57;;;;;;;0.75;0.20;;;;;;;7.20;100.00;91807.31;2534797;23;20084;-84
2023/01/15 03:36:58;;;;;;;0.10;0.10;;;;;;;7.16;100.00;91786.19;2523053;23;20010;-85
2023/01/15 03:38:00;;;;;;;0.20;0.20;;;;;;;7.26;100.00;91800.31;2521912;23;20090;-85
2023/01/15 03:39:01;;;;;;;0.20;0.17;;;;;;;7.34;100.00;91795.53;2534388;23;20043;-82
2023/01/15 03:40:03;;;;;;;0.10;0.10;;;;;;;7.51;100.00;91792.31;2546262;23;20037;-83
2023/01/15 03:41:33;;;;;;;0.40;0.20;;;;;;;7.24;100.00;91784.78;2546535;23;20010;-82
2023/01/15 03:43:39;;;;;;;0.15;0.15;;;;;;;7.25;100.00;91780.22;2520747;23;20006;-83
2023/01/15 03:44:44;;;;;;;0.10;0.10;;;;;;;7.27;100.00;91796.47;2538698;23;20100;-83
2023/01/15 03:45:49;;;;;;;0.40;0.13;;;;;;;7.39;100.00;91782.44;2558289;23;20380;-82
2023/01/15 03:46:58;;;;;;;0.60;0.10;;;;;;;7.35;100.00;91789.75;2545418;23;20001;-84
2023/01/15 03:48:29;;;;;;;0.30;0.10;;;;;;;7.28;100.00;91784.66;2536955;23;20539;-83
2023/01/15 03:49:56;;;;;;;0.20;0.20;;;;;;;7.44;100.00;91775.81;2539151;23;20032;-80
2023/01/15 03:51:11;;;;;;;0.13;0.13;;;;;;;7.24;100.00;91778.72;2531565;23;20319;-84
2023/01/15 03:52:48;;;;;;;0.52;0.20;;;;;;;7.21;100.00;91772.34;2528444;23;20061;-83
2023/01/15 03:53:54;;;;;;;0.13;0.10;;;;;;;7.25;100.00;91783.63;2535638;23;20149;-84
2023/01/15 03:55:13;;;;;;;0.10;0.10;;;;;;;7.07;100.00;91778.09;2533064;23;20061;-81
2023/01/15 03:56:23;;;;;;;0.52;0.22;;;;;;;7.05;100.00;91775.84;2540505;23;20006;-84
2023/01/15 03:57:40;;;;;;;0.10;0.10;;;;;;;7.21;100.00;91785.63;2535313;23;20447;-83
2023/01/15 03:58:46;;;;;;;0.57;0.10;;;;;;;7.02;100.00;91792.66;2527423;23;20057;-83
2023/01/15 04:00:31;;;;;;;0.30;0.30;;;;;;;6.98;100.00;91784.06;2536275;23;20006;-84
2023/01/15 04:01:37;;;;;;;0.17;0.13;;;;;;;6.88;100.00;91792.31;2555424;23;20009;-81
2023/01/15 04:02:42;;;;;;;0.10;0.10;;;;;;;6.87;100.00;91786.28;2559689;23;20009;-82
2023/01/15 04:03:45;;;;;;;0.43;0.20;;;;;;;6.91;100.00;91770.25;2545991;23;20020;-82
2023/01/15 04:04:46;;;;;;;0.10;0.10;;;;;;;7.12;100.00;91782.13;2535441;23;20033;-81
2023/01/15 04:05:50;;;;;;;0.20;0.20;;;;;;;7.06;100.00;91768.63;2547153;23;20454;-82
2023/01/15 04:06:53;;;;;;;0.98;0.10;;;;;;;7.14;100.00;91755.88;2547212;23;20136;-84
2023/01/15 04:07:57;;;;;;;0.20;0.20;;;;;;;7.19;100.00;91768.63;2534419;23;20089;-80
2023/01/15 04:08:59;;;;;;;0.10;0.10;;;;;;;7.18;100.00;91764.47;2534670;23;20041;-84
2023/01/15 04:10:00;;;;;;;0.20;0.20;;;;;;;7.21;100.00;91759.06;2546469;23;20024;-81
2023/01/15 04:11:01;;;;;;;0.60;0.10;;;;;;;7.16;100.00;91758.88;2533916;23;20082;-82
2023/01/15 04:12:03;;;;;;;0.20;0.20;;;;;;;6.97;100.00;91763.22;2522233;23;20389;-85
2023/01/15 04:13:05;;;;;;;0.20;0.20;;;;;;;7.06;100.00;91755.34;2545776;23;20100;-82
2023/01/15 04:14:06;;;;;;;0.13;0.10;;;;;;;7.09;100.00;91769.69;2545359;23;20086;-87
2023/01/15 04:15:09;;;;;;;0.20;0.20;;;;;;;7.18;100.00;91749.28;2520705;23;20014;-81
2023/01/15 04:16:10;;;;;;;0.20;0.20;;;;;;;7.24;100.00;91757.44;2534284;23;20014;-84
2023/01/15 04:17:11;;;;;;;0.10;0.10;;;;;;;7.14;100.00;91747.91;2533366;23;20002;-84
2023/01/15 04:18:12;;;;;;;0.15;0.15;;;;;;;7.23;100.00;91745.34;2545673;23;20063;-82
2023/01/15 04:19:16;;;;;;;0.10;0.10;;;;;;;7.30;100.00;91751.19;2544409;23;20036;-83
2023/01/15 04:20:17;;;;;;;0.57;0.30;;;;;;;7.27;100.00;91749.38;2533946;23;20372;-80
2023/01/15 04:21:40;;;;;;;0.80;0.13;;;;;;;7.42;100.00;91755.00;2534243;23;20536;-80
2023/01/15 04:22:41;;;;;;;1.13;0.20;;;;;;;7.15;100.00;91720.16;2539928;23;20620;-87
2023/01/15 04:23:43;;;;;;;0.30;0.20;;;;;;;7.26;100.00;91742.56;2522460;23;20009;-84
2023/01/15 04:24:44;;;;;;;0.10;0.10;;;;;;;7.21;100.00;91751.09;2534067;23;20049;-82
2023/01/15 04:25:48;;;;;;;0.40;0.30;;;;;;;7.19;100.00;91740.13;2534935;23;20664;-82
2023/01/15 04:26:50;;;;;;;0.20;0.20;;;;;;;7.29;100.00;91741.72;2523787;23;20057;-83
2023/01/15 04:27:53;;;;;;;0.20;0.20;;;;;;;7.29;100.00;91748.97;2522167;23;20002;-83
2023/01/15 04:28:54;;;;;;;0.20;0.20;;;;;;;7.21;100.00;91740.47;2522225;23;20444;-87
2023/01/15 04:29:56;;;;;;;0.13;0.10;;;;;;;7.31;100.00;91741.28;2521401;23;20062;-82
2023/01/15 04:30:57;;;;;;;0.50;0.20;;;;;;;7.16;100.00;91735.69;2520800;23;20017;-83
2023/01/15 04:31:58;;;;;;;0.20;0.20;;;;;;;7.12;100.00;91742.28;2521317;23;20002;-81
2023/01/15 04:32:59;;;;;;;0.30;0.10;;;;;;;7.07;100.00;91746.22;2521188;23;20006;-82
2023/01/15 04:34:00;;;;;;;0.20;0.20;;;;;;;7.02;100.00;91746.75;2545400;23;20411;-82
2023/01/15 04:35:11;;;;;;;0.20;0.20;;;;;;;7.03;100.00;91743.66;2557122;23;20032;-82
2023/01/15 04:36:13;;;;;;;0.52;0.47;;;;;;;7.22;100.00;91746.50;2547942;23;20442;-82
2023/01/15 04:37:16;;;;;;;0.30;0.20;;;;;;;7.09;100.00;91756.41;2545683;23;20416;-85
2023/01/15 04:38:17;;;;;;;0.20;0.20;;;;;;;7.00;100.00;91752.47;2533485;23;20012;-85
2023/01/15 04:39:18;;;;;;;0.10;0.10;;;;;;;7.22;100.00;91749.91;2520781;23;20011;-85
2023/01/15 04:44:18;;;;;;;0.35;0.30;;;;;;;7.25;100.00;91754.38;2548685;23;19992;-82
2023/01/15 04:45:21;;;;;;;0.10;0.10;;;;;;;7.18;100.00;91749.28;2545502;23;20009;-86
2023/01/15 04:46:24;;;;;;;1.00;0.20;;;;;;;7.19;100.00;91750.03;2546359;23;20084;-83
2023/01/15 04:47:25;;;;;;;0.90;0.30;;;;;;;7.03;100.00;91746.31;2534535;23;20020;-86
2023/01/15 04:48:26;;;;;;;0.20;0.20;;;;;;;6.97;100.00;91744.63;2557928;23;20008;-85
2023/01/15 04:49:27;;;;;;;1.00;0.20;;;;;;;6.92;100.00;91743.25;2558552;23;20692;-83
2023/01/15 04:50:28;;;;;;;0.15;0.15;;;;;;;6.90;100.00;91731.56;2546072;23;20021;-85
2023/01/15 04:51:29;;;;;;;0.20;0.20;;;;;;;6.86;100.00;91729.00;2533561;23;20006;-84
2023/01/15 04:52:30;;;;;;;0.10;0.10;;;;;;;7.01;100.00;91732.72;2557541;23;20009;-84
2023/01/15 04:53:31;;;;;;;0.10;0.10;;;;;;;7.05;100.00;91727.28;2533176;23;20005;-84
2023/01/15 04:54:32;;;;;;;0.20;0.20;;;;;;;7.20;100.00;91738.22;2533760;23;20053;-87
2023/01/15 04:55:38;;;;;;;0.10;0.10;;;;;;;7.36;100.00;91724.78;2545343;23;20012;-84
2023/01/15 04:56:42;;;;;;;0.20;0.20;;;;;;;7.41;100.00;91724.25;2534692;23;20021;-85
2023/01/15 04:57:43;;;;;;;0.10;0.10;;;;;;;7.17;100.00;91729.19;2534522;23;20009;-86
2023/01/15 04:58:45;;;;;;;0.20;0.20;;;;;;;7.47;100.00;91729.78;2545471;23;20002;-84
2023/01/15 04:59:45;;;;;;;0.10;0.10;;;;;;;7.34;100.00;91731.72;2545503;23;20009;-83
2023/01/15 05:00:46;;;;;;;0.10;0.10;;;;;;;7.27;100.00;91722.06;2545085;23;20380;-83
2023/01/15 05:01:49;;;;;;;0.10;0.10;;;;;;;7.21;100.00;91729.09;2532727;23;20425;-82
2023/01/15 05:02:50;;;;;;;0.10;0.10;;;;;;;7.07;100.00;91719.66;2521392;23;20501;-83
2023/01/15 05:03:51;;;;;;;0.10;0.10;;;;;;;7.09;100.00;91724.53;2532606;23;20053;-86
2023/01/15 05:04:52;;;;;;;0.20;0.10;;;;;;;7.38;100.00;91737.69;2545552;23;20005;-81
2023/01/15 05:05:53;;;;;;;0.10;0.10;;;;;;;7.20;100.00;91730.25;2533749;23;20096;-84
2023/01/15 05:06:54;;;;;;;0.10;0.10;;;;;;;7.27;100.00;91716.75;2521556;23;20014;-87
2023/01/15 05:07:55;;;;;;;0.10;0.10;;;;;;;7.19;100.00;91715.47;2534162;23;19998;-83
2023/01/15 05:08:57;;;;;;;0.10;0.10;;;;;;;7.19;100.00;91715.47;2545816;23;20336;-82
2023/01/15 05:10:05;;;;;;;0.57;0.20;;;;;;;7.10;100.00;91716.13;2522129;23;20500;-84
2023/01/15 05:11:07;;;;;;;0.10;0.10;;;;;;;7.52;100.00;91729.97;2524124;23;20053;-84
2023/01/15 05:12:07;;;;;;;0.10;0.10;;;;;;;7.44;100.00;91712.03;2534039;23;20002;-86
2023/01/15 05:13:14;;;;;;;0.20;0.20;;;;;;;7.18;100.00;91703.38;2544789;23;20413;-85
2023/01/15 05:14:15;;;;;;;0.20;0.20;;;;;;;7.13;100.00;91717.19;2546099;23;20309;-85
2023/01/15 05:15:16;;;;;;;0.10;0.10;;;;;;;7.26;100.00;91723.22;2544944;23;20012;-87
2023/01/15 05:16:24;;;;;;;0.47;0.10;;;;;;;7.02;100.00;91686.41;2557305;23;20324;-86
2023/01/15 05:17:26;;;;;;;0.10;0.10;;;;;;;7.19;100.00;91715.47;2557214;23;20102;-86
2023/01/15 05:18:27;;;;;;;0.10;0.10;;;;;;;7.21;100.00;91716.53;2545422;23;20114;-84
2023/01/15 05:19:28;;;;;;;0.20;0.20;;;;;;;7.37;100.00;91714.91;2545351;23;20008;-89
2023/01/15 05:20:29;;;;;;;0.10;0.10;;;;;;;7.26;100.00;91707.28;2532394;23;20006;-84
2023/01/15 05:21:32;;;;;;;0.10;0.10;;;;;;;7.13;100.00;91702.00;2533101;23;20010;-84
2023/01/15 05:22:34;;;;;;;0.30;0.20;;;;;;;7.04;100.00;91702.66;2533576;23;20432;-85
2023/01/15 05:23:35;;;;;;;1.00;0.17;;;;;;;7.29;100.00;91706.44;2521231;23;20006;-86
2023/01/15 05:24:36;;;;;;;0.13;0.13;;;;;;;7.38;100.00;91714.50;2520948;23;20010;-84
2023/01/15 05:25:42;;;;;;;0.17;0.17;;;;;;;7.18;100.00;91706.75;2520707;23;20050;-87
2023/01/15 05:26:44;;;;;;;0.20;0.20;;;;;;;7.26;100.00;91705.38;2546664;23;20008;-85
2023/01/15 05:27:45;;;;;;;0.10;0.10;;;;;;;7.14;100.00;91719.41;2533243;23;20010;-86
2023/01/15 05:28:46;;;;;;;1.67;0.20;;;;;;;7.27;100.00;91712.16;2545368;23;20005;-83
2023/01/15 05:29:47;;;;;;;0.68;0.20;;;;;;;7.33;100.00;91704.38;2545412;23;20107;-84
2023/01/15 05:30:48;;;;;;;0.20;0.20;;;;;;;7.34;100.00;91713.88;2520648;23;20085;-89
2023/01/15 05:31:49;;;;;;;0.10;0.10;;;;;;;7.16;100.00;91713.69;2520768;23;20015;-85
2023/01/15 05:32:50;;;;;;;0.20;0.20;;;;;;;7.16;100.00;91703.06;2520859;23;20002;-84
2023/01/15 05:33:53;;;;;;;0.10;0.10;;;;;;;7.19;100.00;91683.59;2521090;23;20026;-83
2023/01/15 05:34:54;;;;;;;0.20;0.20;;;;;;;7.16;100.00;91709.13;2521589;23;20006;-85
2023/01/15 05:36:00;;;;;;;0.30;0.20;;;;;;;7.04;100.00;91705.31;2521218;23;20002;-82